sensor_id;sensor_type;location;lat;lon;timestamp;temperature;humidity
28532;DHT22;15738;44.860;10.066;2022-08-23T00:01:25;23.20;99.90
28532;DHT22;15738;44.860;10.066;2022-08-23T00:04:19;23.20;99.90
28532;DHT22;15738;44.860;10.066;2022-08-23T00:07:08;23.20;99.90
28532;DHT22;15738;44.860;10.066;2022-08-23T00:09:55;23.20;99.90
28532;DHT22;15738;44.860;10.066;2022-08-23T00:12:44;23.20;99.90
28532;DHT22;15738;44.860;10.066;2022-08-23T00:15:30;23.20;99.90
28532;DHT22;15738;44.860;10.066;2022-08-23T00:18:16;23.20;99.90
28532;DHT22;15738;44.860;10.066;2022-08-23T00:21:03;23.00;99.90
28532;DHT22;15738;44.860;10.066;2022-08-23T00:23:49;23.00;99.90
28532;DHT22;15738;44.860;10.066;2022-08-23T00:32:29;23.00;99.90
28532;DHT22;15738;44.860;10.066;2022-08-23T00:35:16;23.00;99.90
28532;DHT22;15738;44.860;10.066;2022-08-23T00:38:12;22.90;99.90
28532;DHT22;15738;44.860;10.066;2022-08-23T00:41:17;22.90;99.90
28532;DHT22;15738;44.860;10.066;2022-08-23T00:44:04;22.90;99.90
28532;DHT22;15738;44.860;10.066;2022-08-23T00:47:12;22.90;99.90
28532;DHT22;15738;44.860;10.066;2022-08-23T00:53:32;22.80;99.90
28532;DHT22;15738;44.860;10.066;2022-08-23T00:56:20;22.80;99.90
28532;DHT22;15738;44.860;10.066;2022-08-23T00:59:07;22.70;99.90
28532;DHT22;15738;44.860;10.066;2022-08-23T01:01:53;22.70;99.90
28532;DHT22;15738;44.860;10.066;2022-08-23T01:04:43;22.70;99.90
28532;DHT22;15738;44.860;10.066;2022-08-23T01:10:35;22.50;99.90
28532;DHT22;15738;44.860;10.066;2022-08-23T01:13:27;22.50;99.90
28532;DHT22;15738;44.860;10.066;2022-08-23T01:16:34;22.40;99.90
28532;DHT22;15738;44.860;10.066;2022-08-23T01:19:29;22.40;99.90
28532;DHT22;15738;44.860;10.066;2022-08-23T01:22:33;22.40;99.90
28532;DHT22;15738;44.860;10.066;2022-08-23T01:25:22;22.40;99.90
28532;DHT22;15738;44.860;10.066;2022-08-23T01:28:08;22.40;99.90
28532;DHT22;15738;44.860;10.066;2022-08-23T01:30:54;22.40;99.90
28532;DHT22;15738;44.860;10.066;2022-08-23T01:33:41;22.40;99.90
28532;DHT22;15738;44.860;10.066;2022-08-23T01:36:28;22.30;99.90
28532;DHT22;15738;44.860;10.066;2022-08-23T01:39:14;22.40;99.90
28532;DHT22;15738;44.860;10.066;2022-08-23T01:42:00;22.40;99.90
28532;DHT22;15738;44.860;10.066;2022-08-23T01:44:52;22.40;99.90
28532;DHT22;15738;44.860;10.066;2022-08-23T01:47:39;22.50;99.90
28532;DHT22;15738;44.860;10.066;2022-08-23T01:50:27;22.50;99.90
28532;DHT22;15738;44.860;10.066;2022-08-23T01:53:14;22.50;99.90
28532;DHT22;15738;44.860;10.066;2022-08-23T01:56:05;22.40;99.90
28532;DHT22;15738;44.860;10.066;2022-08-23T01:58:54;22.00;99.90
28532;DHT22;15738;44.860;10.066;2022-08-23T02:01:42;22.40;99.90
28532;DHT22;15738;44.860;10.066;2022-08-23T02:04:28;22.40;99.90
28532;DHT22;15738;44.860;10.066;2022-08-23T02:07:15;22.40;99.90
28532;DHT22;15738;44.860;10.066;2022-08-23T02:10:01;22.40;99.90
28532;DHT22;15738;44.860;10.066;2022-08-23T02:12:47;22.40;99.90
28532;DHT22;15738;44.860;10.066;2022-08-23T02:15:35;22.10;99.90
28532;DHT22;15738;44.860;10.066;2022-08-23T02:18:21;22.30;99.90
28532;DHT22;15738;44.860;10.066;2022-08-23T02:21:08;22.10;99.90
28532;DHT22;15738;44.860;10.066;2022-08-23T02:23:56;22.00;99.90
28532;DHT22;15738;44.860;10.066;2022-08-23T02:26:47;22.20;99.90
28532;DHT22;15738;44.860;10.066;2022-08-23T02:29:42;22.50;99.90
28532;DHT22;15738;44.860;10.066;2022-08-23T02:35:16;22.10;99.90
28532;DHT22;15738;44.860;10.066;2022-08-23T02:38:07;21.90;99.90
28532;DHT22;15738;44.860;10.066;2022-08-23T02:40:53;22.00;99.90
28532;DHT22;15738;44.860;10.066;2022-08-23T02:43:50;22.00;99.90
28532;DHT22;15738;44.860;10.066;2022-08-23T02:46:39;22.00;99.90
28532;DHT22;15738;44.860;10.066;2022-08-23T02:49:25;22.00;99.90
28532;DHT22;15738;44.860;10.066;2022-08-23T02:52:11;21.90;99.90
28532;DHT22;15738;44.860;10.066;2022-08-23T02:54:57;21.90;99.90
28532;DHT22;15738;44.860;10.066;2022-08-23T02:57:43;22.60;99.90
28532;DHT22;15738;44.860;10.066;2022-08-23T03:00:31;21.70;99.90
28532;DHT22;15738;44.860;10.066;2022-08-23T03:03:17;21.60;99.90
28532;DHT22;15738;44.860;10.066;2022-08-23T03:06:07;21.80;99.90
28532;DHT22;15738;44.860;10.066;2022-08-23T03:09:10;23.10;99.90
28532;DHT22;15738;44.860;10.066;2022-08-23T03:11:56;21.80;99.90
28532;DHT22;15738;44.860;10.066;2022-08-23T03:14:42;21.80;99.90
28532;DHT22;15738;44.860;10.066;2022-08-23T03:17:28;21.80;99.90
28532;DHT22;15738;44.860;10.066;2022-08-23T03:20:14;21.80;99.90
28532;DHT22;15738;44.860;10.066;2022-08-23T03:23:00;21.40;99.90
28532;DHT22;15738;44.860;10.066;2022-08-23T03:25:47;21.70;99.90
28532;DHT22;15738;44.860;10.066;2022-08-23T03:28:43;21.60;99.90
28532;DHT22;15738;44.860;10.066;2022-08-23T03:31:30;21.70;99.90
28532;DHT22;15738;44.860;10.066;2022-08-23T03:34:24;21.60;99.90
28532;DHT22;15738;44.860;10.066;2022-08-23T03:37:11;21.70;99.90
28532;DHT22;15738;44.860;10.066;2022-08-23T03:39:56;21.60;99.90
28532;DHT22;15738;44.860;10.066;2022-08-23T03:42:42;21.50;99.90
28532;DHT22;15738;44.860;10.066;2022-08-23T03:45:29;21.50;99.90
28532;DHT22;15738;44.860;10.066;2022-08-23T03:48:15;21.50;99.90
28532;DHT22;15738;44.860;10.066;2022-08-23T03:51:02;21.60;99.90
28532;DHT22;15738;44.860;10.066;2022-08-23T03:53:49;21.60;99.90
28532;DHT22;15738;44.860;10.066;2022-08-23T03:56:38;21.70;99.90
28532;DHT22;15738;44.860;10.066;2022-08-23T03:59:27;21.50;99.90
28532;DHT22;15738;44.860;10.066;2022-08-23T04:02:15;21.40;99.90
28532;DHT22;15738;44.860;10.066;2022-08-23T04:05:01;21.90;99.90
28532;DHT22;15738;44.860;10.066;2022-08-23T04:08:22;21.70;99.90
28532;DHT22;15738;44.860;10.066;2022-08-23T04:11:21;21.00;99.90
28532;DHT22;15738;44.860;10.066;2022-08-23T04:14:14;21.30;99.90
28532;DHT22;15738;44.860;10.066;2022-08-23T04:17:00;21.30;99.90
28532;DHT22;15738;44.860;10.066;2022-08-23T04:19:46;21.20;99.90
28532;DHT22;15738;44.860;10.066;2022-08-23T04:22:33;21.60;99.90
28532;DHT22;15738;44.860;10.066;2022-08-23T04:25:20;21.20;99.90
28532;DHT22;15738;44.860;10.066;2022-08-23T04:28:21;21.50;99.90
28532;DHT22;15738;44.860;10.066;2022-08-23T04:31:08;21.20;99.90
28532;DHT22;15738;44.860;10.066;2022-08-23T04:33:57;21.10;99.90
28532;DHT22;15738;44.860;10.066;2022-08-23T04:36:45;21.50;99.90
28532;DHT22;15738;44.860;10.066;2022-08-23T04:42:51;21.30;99.90
28532;DHT22;15738;44.860;10.066;2022-08-23T04:45:38;21.20;99.90
28532;DHT22;15738;44.860;10.066;2022-08-23T04:48:28;21.30;99.90
28532;DHT22;15738;44.860;10.066;2022-08-23T04:51:14;21.20;99.90
28532;DHT22;15738;44.860;10.066;2022-08-23T04:54:01;21.20;99.90
28532;DHT22;15738;44.860;10.066;2022-08-23T04:56:53;22.40;99.90
28532;DHT22;15738;44.860;10.066;2022-08-23T04:59:40;21.20;99.90
28532;DHT22;15738;44.860;10.066;2022-08-23T05:02:26;21.10;99.90
28532;DHT22;15738;44.860;10.066;2022-08-23T05:05:14;21.20;99.90
28532;DHT22;15738;44.860;10.066;2022-08-23T05:08:02;21.50;99.90
28532;DHT22;15738;44.860;10.066;2022-08-23T05:10:48;22.00;99.90
28532;DHT22;15738;44.860;10.066;2022-08-23T05:13:34;22.30;99.90
28532;DHT22;15738;44.860;10.066;2022-08-23T05:16:22;22.30;99.90
28532;DHT22;15738;44.860;10.066;2022-08-23T05:19:17;22.80;99.90
28532;DHT22;15738;44.860;10.066;2022-08-23T05:22:04;23.40;99.90
28532;DHT22;15738;44.860;10.066;2022-08-23T05:25:15;24.60;99.90
28532;DHT22;15738;44.860;10.066;2022-08-23T05:28:01;25.20;99.90
28532;DHT22;15738;44.860;10.066;2022-08-23T05:31:02;24.80;99.90
28532;DHT22;15738;44.860;10.066;2022-08-23T05:33:56;25.60;99.90
28532;DHT22;15738;44.860;10.066;2022-08-23T05:36:55;25.30;99.90
28532;DHT22;15738;44.860;10.066;2022-08-23T05:39:47;25.30;99.90
28532;DHT22;15738;44.860;10.066;2022-08-23T05:42:33;25.40;99.90
28532;DHT22;15738;44.860;10.066;2022-08-23T05:45:19;25.70;99.90
28532;DHT22;15738;44.860;10.066;2022-08-23T05:48:07;25.60;99.90
28532;DHT22;15738;44.860;10.066;2022-08-23T05:51:22;25.70;99.90
28532;DHT22;15738;44.860;10.066;2022-08-23T05:56:55;25.40;99.90
28532;DHT22;15738;44.860;10.066;2022-08-23T05:59:41;25.10;99.90
28532;DHT22;15738;44.860;10.066;2022-08-23T06:02:26;25.00;99.90
28532;DHT22;15738;44.860;10.066;2022-08-23T06:05:12;25.00;99.90
28532;DHT22;15738;44.860;10.066;2022-08-23T06:07:59;24.80;99.90
28532;DHT22;15738;44.860;10.066;2022-08-23T06:10:45;25.10;99.90
28532;DHT22;15738;44.860;10.066;2022-08-23T06:13:45;25.00;99.90
28532;DHT22;15738;44.860;10.066;2022-08-23T06:16:34;25.10;99.90
28532;DHT22;15738;44.860;10.066;2022-08-23T06:22:07;24.40;99.90
28532;DHT22;15738;44.860;10.066;2022-08-23T06:24:58;25.30;99.90
28532;DHT22;15738;44.860;10.066;2022-08-23T06:28:11;25.50;99.90
28532;DHT22;15738;44.860;10.066;2022-08-23T06:30:59;25.70;99.90
28532;DHT22;15738;44.860;10.066;2022-08-23T06:33:51;25.80;99.90
28532;DHT22;15738;44.860;10.066;2022-08-23T06:36:55;25.80;99.90
28532;DHT22;15738;44.860;10.066;2022-08-23T06:40:07;26.90;99.90
28532;DHT22;15738;44.860;10.066;2022-08-23T06:43:17;26.10;99.90
28532;DHT22;15738;44.860;10.066;2022-08-23T06:46:25;26.10;99.90
28532;DHT22;15738;44.860;10.066;2022-08-23T06:49:14;26.50;99.90
28532;DHT22;15738;44.860;10.066;2022-08-23T06:52:02;26.90;99.90
28532;DHT22;15738;44.860;10.066;2022-08-23T06:55:20;27.00;99.90
28532;DHT22;15738;44.860;10.066;2022-08-23T06:58:22;27.00;99.90
28532;DHT22;15738;44.860;10.066;2022-08-23T07:04:42;27.50;99.90
28532;DHT22;15738;44.860;10.066;2022-08-23T07:10:32;28.00;99.90
28532;DHT22;15738;44.860;10.066;2022-08-23T07:13:18;28.10;99.90
28532;DHT22;15738;44.860;10.066;2022-08-23T07:16:05;27.90;99.90
28532;DHT22;15738;44.860;10.066;2022-08-23T07:18:51;28.00;99.90
28532;DHT22;15738;44.860;10.066;2022-08-23T07:21:40;28.20;99.90
28532;DHT22;15738;44.860;10.066;2022-08-23T07:24:27;28.30;99.90
28532;DHT22;15738;44.860;10.066;2022-08-23T07:27:18;28.40;99.90
28532;DHT22;15738;44.860;10.066;2022-08-23T07:30:24;28.40;99.90
28532;DHT22;15738;44.860;10.066;2022-08-23T07:33:11;28.60;99.90
28532;DHT22;15738;44.860;10.066;2022-08-23T07:36:19;28.80;99.90
28532;DHT22;15738;44.860;10.066;2022-08-23T07:39:06;29.20;99.90
28532;DHT22;15738;44.860;10.066;2022-08-23T07:44:40;29.70;99.90
28532;DHT22;15738;44.860;10.066;2022-08-23T07:47:27;28.60;99.90
28532;DHT22;15738;44.860;10.066;2022-08-23T07:50:15;29.60;99.90
28532;DHT22;15738;44.860;10.066;2022-08-23T07:53:02;29.60;99.90
28532;DHT22;15738;44.860;10.066;2022-08-23T07:55:49;29.60;99.90
28532;DHT22;15738;44.860;10.066;2022-08-23T07:58:58;29.80;99.90
28532;DHT22;15738;44.860;10.066;2022-08-23T08:02:18;30.40;99.90
28532;DHT22;15738;44.860;10.066;2022-08-23T08:05:04;30.40;99.90
28532;DHT22;15738;44.860;10.066;2022-08-23T08:07:50;29.60;99.90
28532;DHT22;15738;44.860;10.066;2022-08-23T08:10:40;29.80;99.90
28532;DHT22;15738;44.860;10.066;2022-08-23T08:13:26;29.80;99.90
28532;DHT22;15738;44.860;10.066;2022-08-23T08:16:21;30.30;99.90
28532;DHT22;15738;44.860;10.066;2022-08-23T08:19:12;30.40;99.90
28532;DHT22;15738;44.860;10.066;2022-08-23T08:22:18;30.70;99.90
28532;DHT22;15738;44.860;10.066;2022-08-23T08:25:25;30.90;99.90
28532;DHT22;15738;44.860;10.066;2022-08-23T08:28:12;30.10;99.90
28532;DHT22;15738;44.860;10.066;2022-08-23T08:31:01;31.20;99.90
28532;DHT22;15738;44.860;10.066;2022-08-23T08:33:48;30.80;99.90
28532;DHT22;15738;44.860;10.066;2022-08-23T08:36:40;30.90;99.90
28532;DHT22;15738;44.860;10.066;2022-08-23T08:39:33;31.00;99.90
28532;DHT22;15738;44.860;10.066;2022-08-23T08:45:26;32.00;99.90
28532;DHT22;15738;44.860;10.066;2022-08-23T08:48:20;31.90;99.90
28532;DHT22;15738;44.860;10.066;2022-08-23T08:51:19;31.70;99.90
28532;DHT22;15738;44.860;10.066;2022-08-23T08:54:13;32.00;99.90
28532;DHT22;15738;44.860;10.066;2022-08-23T08:57:05;31.70;99.90
28532;DHT22;15738;44.860;10.066;2022-08-23T09:00:12;31.40;99.90
28532;DHT22;15738;44.860;10.066;2022-08-23T09:03:05;31.60;99.90
28532;DHT22;15738;44.860;10.066;2022-08-23T09:12:00;32.00;99.90
28532;DHT22;15738;44.860;10.066;2022-08-23T09:18:13;31.30;99.90
28532;DHT22;15738;44.860;10.066;2022-08-23T09:21:02;31.40;99.90
28532;DHT22;15738;44.860;10.066;2022-08-23T09:23:51;31.20;99.90
28532;DHT22;15738;44.860;10.066;2022-08-23T09:27:08;31.40;99.90
28532;DHT22;15738;44.860;10.066;2022-08-23T09:29:57;31.30;99.90
28532;DHT22;15738;44.860;10.066;2022-08-23T09:32:45;31.40;99.90
28532;DHT22;15738;44.860;10.066;2022-08-23T09:35:35;31.30;99.90
28532;DHT22;15738;44.860;10.066;2022-08-23T09:38:24;31.20;99.90
28532;DHT22;15738;44.860;10.066;2022-08-23T09:41:19;31.00;99.90
28532;DHT22;15738;44.860;10.066;2022-08-23T09:44:13;30.80;99.90
28532;DHT22;15738;44.860;10.066;2022-08-23T09:47:16;30.40;99.90
28532;DHT22;15738;44.860;10.066;2022-08-23T09:50:24;30.50;99.90
28532;DHT22;15738;44.860;10.066;2022-08-23T09:53:13;30.40;99.90
28532;DHT22;15738;44.860;10.066;2022-08-23T09:56:22;30.60;99.90
28532;DHT22;15738;44.860;10.066;2022-08-23T10:05:19;30.60;99.90
28532;DHT22;15738;44.860;10.066;2022-08-23T10:08:27;30.90;99.90
28532;DHT22;15738;44.860;10.066;2022-08-23T10:11:28;29.80;99.90
28532;DHT22;15738;44.860;10.066;2022-08-23T10:14:17;30.10;99.90
28532;DHT22;15738;44.860;10.066;2022-08-23T10:20:25;30.70;99.90
28532;DHT22;15738;44.860;10.066;2022-08-23T10:23:41;29.90;99.90
28532;DHT22;15738;44.860;10.066;2022-08-23T10:26:31;30.10;99.90
28532;DHT22;15738;44.860;10.066;2022-08-23T10:29:36;30.00;99.90
28532;DHT22;15738;44.860;10.066;2022-08-23T10:39:00;29.80;99.90
28532;DHT22;15738;44.860;10.066;2022-08-23T10:42:18;30.00;99.90
28532;DHT22;15738;44.860;10.066;2022-08-23T10:45:14;30.00;99.90
28532;DHT22;15738;44.860;10.066;2022-08-23T10:48:29;29.60;99.90
28532;DHT22;15738;44.860;10.066;2022-08-23T10:51:20;29.00;99.90
28532;DHT22;15738;44.860;10.066;2022-08-23T10:54:42;29.70;99.90
28532;DHT22;15738;44.860;10.066;2022-08-23T10:57:46;29.50;99.90
28532;DHT22;15738;44.860;10.066;2022-08-23T11:00:34;29.40;99.90
28532;DHT22;15738;44.860;10.066;2022-08-23T11:03:36;30.00;99.90
28532;DHT22;15738;44.860;10.066;2022-08-23T11:12:29;29.80;99.90
28532;DHT22;15738;44.860;10.066;2022-08-23T11:27:04;29.60;99.90
28532;DHT22;15738;44.860;10.066;2022-08-23T11:33:34;29.70;99.90
28532;DHT22;15738;44.860;10.066;2022-08-23T11:36:23;30.00;99.90
28532;DHT22;15738;44.860;10.066;2022-08-23T11:39:12;29.70;99.90
28532;DHT22;15738;44.860;10.066;2022-08-23T11:42:17;29.80;99.90
28532;DHT22;15738;44.860;10.066;2022-08-23T11:45:21;29.90;99.90
28532;DHT22;15738;44.860;10.066;2022-08-23T12:00:17;30.20;99.90
28532;DHT22;15738;44.860;10.066;2022-08-23T12:03:30;30.00;99.90
28532;DHT22;15738;44.860;10.066;2022-08-23T12:14:50;30.10;99.90
28532;DHT22;15738;44.860;10.066;2022-08-23T12:20:29;30.70;99.80
28532;DHT22;15738;44.860;10.066;2022-08-23T12:23:18;30.20;99.30
28532;DHT22;15738;44.860;10.066;2022-08-23T12:26:13;30.40;98.90
28532;DHT22;15738;44.860;10.066;2022-08-23T12:29:11;30.70;99.80
28532;DHT22;15738;44.860;10.066;2022-08-23T12:41:28;30.00;99.90
28532;DHT22;15738;44.860;10.066;2022-08-23T12:44:21;30.60;99.70
28532;DHT22;15738;44.860;10.066;2022-08-23T12:47:25;30.40;99.90
28532;DHT22;15738;44.860;10.066;2022-08-23T12:53:03;29.70;97.20
28532;DHT22;15738;44.860;10.066;2022-08-23T12:55:51;30.50;98.20
28532;DHT22;15738;44.860;10.066;2022-08-23T12:58:50;30.40;97.80
28532;DHT22;15738;44.860;10.066;2022-08-23T13:01:38;30.80;99.00
28532;DHT22;15738;44.860;10.066;2022-08-23T13:04:26;30.80;98.00
28532;DHT22;15738;44.860;10.066;2022-08-23T13:07:19;30.70;98.50
28532;DHT22;15738;44.860;10.066;2022-08-23T13:10:07;30.80;98.40
28532;DHT22;15738;44.860;10.066;2022-08-23T13:12:55;30.80;98.10
28532;DHT22;15738;44.860;10.066;2022-08-23T13:16:02;30.90;98.10
28532;DHT22;15738;44.860;10.066;2022-08-23T13:19:16;31.00;97.40
28532;DHT22;15738;44.860;10.066;2022-08-23T13:22:19;31.00;98.00
28532;DHT22;15738;44.860;10.066;2022-08-23T13:25:22;30.80;98.60
28532;DHT22;15738;44.860;10.066;2022-08-23T13:28:26;30.90;99.30
28532;DHT22;15738;44.860;10.066;2022-08-23T13:31:13;30.30;99.30
28532;DHT22;15738;44.860;10.066;2022-08-23T13:33:59;30.80;98.60
28532;DHT22;15738;44.860;10.066;2022-08-23T13:36:50;30.80;98.80
28532;DHT22;15738;44.860;10.066;2022-08-23T13:39:36;30.50;97.40
28532;DHT22;15738;44.860;10.066;2022-08-23T13:42:26;30.20;98.70
28532;DHT22;15738;44.860;10.066;2022-08-23T13:45:20;30.60;97.90
28532;DHT22;15738;44.860;10.066;2022-08-23T13:48:27;30.60;97.00
28532;DHT22;15738;44.860;10.066;2022-08-23T13:51:31;30.30;97.00
28532;DHT22;15738;44.860;10.066;2022-08-23T13:54:17;30.60;99.30
28532;DHT22;15738;44.860;10.066;2022-08-23T13:57:09;30.80;97.80
28532;DHT22;15738;44.860;10.066;2022-08-23T13:59:56;30.50;97.40
28532;DHT22;15738;44.860;10.066;2022-08-23T14:02:43;30.70;97.90
28532;DHT22;15738;44.860;10.066;2022-08-23T14:05:33;31.00;99.30
28532;DHT22;15738;44.860;10.066;2022-08-23T14:08:19;30.80;99.80
28532;DHT22;15738;44.860;10.066;2022-08-23T14:11:05;30.70;99.00
28532;DHT22;15738;44.860;10.066;2022-08-23T14:13:51;30.70;98.30
28532;DHT22;15738;44.860;10.066;2022-08-23T14:16:37;30.90;97.30
28532;DHT22;15738;44.860;10.066;2022-08-23T14:19:24;30.80;97.00
28532;DHT22;15738;44.860;10.066;2022-08-23T14:22:30;30.50;97.00
28532;DHT22;15738;44.860;10.066;2022-08-23T14:25:17;30.60;98.40
28532;DHT22;15738;44.860;10.066;2022-08-23T14:28:02;30.60;96.60
28532;DHT22;15738;44.860;10.066;2022-08-23T14:30:54;30.80;95.20
28532;DHT22;15738;44.860;10.066;2022-08-23T14:33:52;30.50;93.40
28532;DHT22;15738;44.860;10.066;2022-08-23T14:36:44;30.40;93.70
28532;DHT22;15738;44.860;10.066;2022-08-23T14:39:49;30.40;92.00
28532;DHT22;15738;44.860;10.066;2022-08-23T14:42:35;30.70;92.30
28532;DHT22;15738;44.860;10.066;2022-08-23T14:45:21;30.80;93.20
28532;DHT22;15738;44.860;10.066;2022-08-23T14:48:08;30.30;94.00
28532;DHT22;15738;44.860;10.066;2022-08-23T14:50:54;31.40;94.70
28532;DHT22;15738;44.860;10.066;2022-08-23T14:53:40;30.40;93.70
28532;DHT22;15738;44.860;10.066;2022-08-23T14:56:26;30.00;93.90
28532;DHT22;15738;44.860;10.066;2022-08-23T14:59:12;30.50;94.10
28532;DHT22;15738;44.860;10.066;2022-08-23T15:01:58;30.90;94.20
28532;DHT22;15738;44.860;10.066;2022-08-23T15:04:45;30.00;94.00
28532;DHT22;15738;44.860;10.066;2022-08-23T15:07:31;30.90;94.10
28532;DHT22;15738;44.860;10.066;2022-08-23T15:10:17;30.40;93.60
28532;DHT22;15738;44.860;10.066;2022-08-23T15:13:22;30.40;94.20
28532;DHT22;15738;44.860;10.066;2022-08-23T15:16:18;30.10;94.90
28532;DHT22;15738;44.860;10.066;2022-08-23T15:21:51;30.50;94.70
28532;DHT22;15738;44.860;10.066;2022-08-23T15:24:36;30.40;95.20
28532;DHT22;15738;44.860;10.066;2022-08-23T15:27:24;30.50;93.70
28532;DHT22;15738;44.860;10.066;2022-08-23T15:30:15;30.60;93.80
28532;DHT22;15738;44.860;10.066;2022-08-23T15:33:01;30.20;95.70
28532;DHT22;15738;44.860;10.066;2022-08-23T15:35:49;30.80;93.60
28532;DHT22;15738;44.860;10.066;2022-08-23T15:38:40;30.50;93.10
28532;DHT22;15738;44.860;10.066;2022-08-23T15:41:26;30.30;94.30
28532;DHT22;15738;44.860;10.066;2022-08-23T15:44:13;30.80;95.10
28532;DHT22;15738;44.860;10.066;2022-08-23T15:47:15;30.40;92.90
28532;DHT22;15738;44.860;10.066;2022-08-23T15:50:03;30.70;94.20
28532;DHT22;15738;44.860;10.066;2022-08-23T15:52:49;31.10;94.60
28532;DHT22;15738;44.860;10.066;2022-08-23T15:55:35;30.40;94.70
28532;DHT22;15738;44.860;10.066;2022-08-23T15:58:25;30.30;94.70
28532;DHT22;15738;44.860;10.066;2022-08-23T16:01:11;30.50;94.40
28532;DHT22;15738;44.860;10.066;2022-08-23T16:03:58;30.60;93.20
28532;DHT22;15738;44.860;10.066;2022-08-23T16:06:46;30.40;93.00
28532;DHT22;15738;44.860;10.066;2022-08-23T16:09:33;30.40;92.40
28532;DHT22;15738;44.860;10.066;2022-08-23T16:12:19;30.40;92.10
28532;DHT22;15738;44.860;10.066;2022-08-23T16:15:05;29.90;92.80
28532;DHT22;15738;44.860;10.066;2022-08-23T16:17:51;30.40;92.50
28532;DHT22;15738;44.860;10.066;2022-08-23T16:20:38;30.30;92.20
28532;DHT22;15738;44.860;10.066;2022-08-23T16:23:24;30.30;92.50
28532;DHT22;15738;44.860;10.066;2022-08-23T16:26:21;30.40;92.40
28532;DHT22;15738;44.860;10.066;2022-08-23T16:29:19;30.40;92.70
28532;DHT22;15738;44.860;10.066;2022-08-23T16:32:06;30.20;91.90
28532;DHT22;15738;44.860;10.066;2022-08-23T16:34:52;30.00;94.20
28532;DHT22;15738;44.860;10.066;2022-08-23T16:37:38;29.50;93.50
28532;DHT22;15738;44.860;10.066;2022-08-23T16:40:24;29.60;94.70
28532;DHT22;15738;44.860;10.066;2022-08-23T16:43:10;30.20;95.50
28532;DHT22;15738;44.860;10.066;2022-08-23T16:45:56;30.70;96.40
28532;DHT22;15738;44.860;10.066;2022-08-23T16:48:43;29.90;97.10
28532;DHT22;15738;44.860;10.066;2022-08-23T16:51:29;29.60;97.80
28532;DHT22;15738;44.860;10.066;2022-08-23T16:54:16;29.90;96.80
28532;DHT22;15738;44.860;10.066;2022-08-23T16:57:04;29.80;95.00
28532;DHT22;15738;44.860;10.066;2022-08-23T16:59:50;29.90;95.20
28532;DHT22;15738;44.860;10.066;2022-08-23T17:02:36;29.80;95.40
28532;DHT22;15738;44.860;10.066;2022-08-23T17:05:22;29.80;95.20
28532;DHT22;15738;44.860;10.066;2022-08-23T17:08:08;29.80;95.20
28532;DHT22;15738;44.860;10.066;2022-08-23T17:10:54;29.80;95.40
28532;DHT22;15738;44.860;10.066;2022-08-23T17:13:45;29.40;96.10
28532;DHT22;15738;44.860;10.066;2022-08-23T17:16:31;29.50;95.50
28532;DHT22;15738;44.860;10.066;2022-08-23T17:19:17;29.60;95.70
28532;DHT22;15738;44.860;10.066;2022-08-23T17:22:02;28.80;97.50
28532;DHT22;15738;44.860;10.066;2022-08-23T17:24:48;29.40;97.50
28532;DHT22;15738;44.860;10.066;2022-08-23T17:27:38;29.30;98.10
28532;DHT22;15738;44.860;10.066;2022-08-23T17:30:30;29.30;99.30
28532;DHT22;15738;44.860;10.066;2022-08-23T17:36:03;29.20;96.70
28532;DHT22;15738;44.860;10.066;2022-08-23T17:38:49;29.10;99.00
28532;DHT22;15738;44.860;10.066;2022-08-23T17:41:35;29.00;98.50
28532;DHT22;15738;44.860;10.066;2022-08-23T17:44:23;28.90;97.40
28532;DHT22;15738;44.860;10.066;2022-08-23T17:47:14;28.90;97.40
28532;DHT22;15738;44.860;10.066;2022-08-23T17:52:48;28.70;99.60
28532;DHT22;15738;44.860;10.066;2022-08-23T17:55:35;28.70;98.50
28532;DHT22;15738;44.860;10.066;2022-08-23T17:58:21;28.60;98.80
28532;DHT22;15738;44.860;10.066;2022-08-23T18:01:10;28.60;98.40
28532;DHT22;15738;44.860;10.066;2022-08-23T18:06:43;28.40;99.90
28532;DHT22;15738;44.860;10.066;2022-08-23T18:09:29;28.30;99.90
28532;DHT22;15738;44.860;10.066;2022-08-23T18:12:15;28.20;98.50
28532;DHT22;15738;44.860;10.066;2022-08-23T18:17:48;28.10;99.90
28532;DHT22;15738;44.860;10.066;2022-08-23T18:20:36;28.10;99.90
28532;DHT22;15738;44.860;10.066;2022-08-23T18:23:22;28.00;99.90
28532;DHT22;15738;44.860;10.066;2022-08-23T18:26:10;28.00;98.60
28532;DHT22;15738;44.860;10.066;2022-08-23T18:29:17;28.00;99.90
28532;DHT22;15738;44.860;10.066;2022-08-23T18:32:05;27.80;99.90
28532;DHT22;15738;44.860;10.066;2022-08-23T18:34:51;27.90;99.90
28532;DHT22;15738;44.860;10.066;2022-08-23T18:37:37;27.80;99.90
28532;DHT22;15738;44.860;10.066;2022-08-23T18:40:25;27.70;99.90
28532;DHT22;15738;44.860;10.066;2022-08-23T18:43:15;27.60;99.90
28532;DHT22;15738;44.860;10.066;2022-08-23T18:46:01;27.60;99.90
28532;DHT22;15738;44.860;10.066;2022-08-23T18:48:47;27.60;99.90
28532;DHT22;15738;44.860;10.066;2022-08-23T18:51:40;27.40;99.90
28532;DHT22;15738;44.860;10.066;2022-08-23T18:54:26;27.30;99.90
28532;DHT22;15738;44.860;10.066;2022-08-23T18:57:18;27.30;99.90
28532;DHT22;15738;44.860;10.066;2022-08-23T19:00:04;27.10;99.90
28532;DHT22;15738;44.860;10.066;2022-08-23T19:02:51;27.10;99.90
28532;DHT22;15738;44.860;10.066;2022-08-23T19:05:38;27.80;99.90
28532;DHT22;15738;44.860;10.066;2022-08-23T19:08:27;26.90;99.90
28532;DHT22;15738;44.860;10.066;2022-08-23T19:11:13;27.30;99.90
28532;DHT22;15738;44.860;10.066;2022-08-23T19:14:00;26.90;99.90
28532;DHT22;15738;44.860;10.066;2022-08-23T19:19:34;26.30;99.90
28532;DHT22;15738;44.860;10.066;2022-08-23T19:22:20;26.60;99.90
28532;DHT22;15738;44.860;10.066;2022-08-23T19:25:06;25.80;99.90
28532;DHT22;15738;44.860;10.066;2022-08-23T19:27:52;25.70;99.90
28532;DHT22;15738;44.860;10.066;2022-08-23T19:30:38;25.60;99.90
28532;DHT22;15738;44.860;10.066;2022-08-23T19:39:19;26.00;99.90
28532;DHT22;15738;44.860;10.066;2022-08-23T19:44:56;25.80;99.90
28532;DHT22;15738;44.860;10.066;2022-08-23T19:47:42;25.90;99.90
28532;DHT22;15738;44.860;10.066;2022-08-23T19:53:14;25.60;99.90
28532;DHT22;15738;44.860;10.066;2022-08-23T19:56:00;25.40;99.90
28532;DHT22;15738;44.860;10.066;2022-08-23T20:01:34;25.50;99.90
28532;DHT22;15738;44.860;10.066;2022-08-23T20:04:22;25.40;99.90
28532;DHT22;15738;44.860;10.066;2022-08-23T20:07:09;25.00;99.90
28532;DHT22;15738;44.860;10.066;2022-08-23T20:09:55;25.80;99.90
28532;DHT22;15738;44.860;10.066;2022-08-23T20:12:41;25.30;99.90